Airfield :
LOGIN :

Register | Disclaimer

   EN    FR    IT 

 










Legend :    VFR   Marginal VFR   IFR   Intensive IFR   Very Intensive IFR
Visi :
Ceiling :
>= 8 km
>= 3000ft
5 to 8 km
1000 to 3000 ft
1500m to 5 km
500 to 1000 ft
800 to 1500m
200 to 500 ft
< 800m
< 200 ft
Symbols :   Thunderstorms  Fog  Heavy snow  Heavy precipitations  Wind > 20 kt
SIGMETs :     Misc.  Thunderstorms  Icing  Turbulence  Mountain Waves  Volcanic Ashes







- Airport Elevation : 1860 ft
- IATA code : GRX


LEGR - Granada

CURRENT METAR :
  • 270830Z VRB01KT 9999 FEW080TCU 26/06 Q1014

EXPIRED METARs :
  • 270800Z 00000KT 9999 FEW080TCU 25/07 Q1014
  • 270730Z VRB01KT 9999 FEW080TCU 24/07 Q1014
  • 270700Z VRB01KT 9999 FEW070TCU 22/08 Q1014
  • 270630Z 00000KT CAVOK 21/07 Q1014
  • 270600Z 29001KT 9999 FEW080 19/07 Q1013

TAF TAF LEGR
Valid from the 27 at 09:00 until the 28 at 09:00 UTC


270800Z 2709/2809 VRB05KT CAVOK TX29/2714Z TN16/2804Z
BECMG 2710/2712 28015KT
PROB40
TEMPO 2712/2717 28015G25KT
BECMG 2801/2803 28005KT
No reported NOTAMs for that airfield.
2 SIGMETs reported for the Madrid FIR (LECM) :
 
Embedded thunderstorms
LECM SIGMET 4 VALID 270841/271100 LEVA
LECM MADRID FIR/UIR EMBD TS OBS AT 0841Z N OF LINE N4230 W00650 - N43 W00230 TOP FL380 STNR NC=
Embedded thunderstorms
LECM SIGMET 3 VALID 270715/270900 LEVA
LECM MADRID FIR/UIR EMBD TS OBS AT 0657Z WI N4430 W00620 - N4250 W00720 - N4230 W00430 - N44 W00310 TOP FL340 STNR NC=



MET'MAP, your aeronautical weather chart ! - Copyright ORBIFLY December 2007 - Disclaimer

ORBIFLY MET'MAP TEAM :

Programming & Development : Alexandra Zaïnal
Concept & Development : Baudouin d'Aumeries
Co-Development & Prog : Marc-Olivier Méhu
Technical & hardware support : Manuel Goepfert

Contact : metmap@orbifly.com




SOURCES & CREDITS :

   NOAA